Time;durP1;ratioP1;P1;durP2;ratioP2;P2;SDS_P1;SDS_P2;PMS_P1;PMS_P2;Temp;Humidity;BMP_temperature;BMP_pressure;BME280_temperature;BME280_humidity;BME280_pressure;Samples;Min_cycle;Max_cycle;Signal;HPM_P1;HPM_P2
2022/09/21 00:01:04;;;;;;;6.32;2.45;;;;;;;20.59;73.17;100825.13;2086075;28;20049;-74
2022/09/21 00:02:27;;;;;;;4.85;2.38;;;;;;;20.60;73.46;100826.00;2079228;28;20053;-75
2022/09/21 00:03:55;;;;;;;5.53;2.97;;;;;;;20.64;73.53;100825.00;2086528;28;20082;-74
2022/09/21 00:05:17;;;;;;;6.22;2.28;;;;;;;20.64;73.85;100823.19;2092728;28;20373;-75
2022/09/21 00:06:40;;;;;;;7.72;2.88;;;;;;;20.66;73.95;100820.47;2096856;28;20510;-75
2022/09/21 00:08:03;;;;;;;4.95;2.22;;;;;;;20.69;73.98;100818.59;2093425;28;20132;-75
2022/09/21 00:09:25;;;;;;;6.85;2.78;;;;;;;20.71;73.93;100817.66;2093201;28;20071;-75
2022/09/21 00:10:49;;;;;;;7.10;2.72;;;;;;;20.72;73.90;100814.97;2078251;28;20872;-75
2022/09/21 00:12:11;;;;;;;6.25;2.42;;;;;;;20.74;74.21;100815.81;2085746;28;20052;-75
2022/09/21 00:13:36;;;;;;;6.80;2.60;;;;;;;20.77;73.99;100809.47;2088339;28;20085;-74
2022/09/21 00:14:59;;;;;;;4.88;2.42;;;;;;;20.77;74.24;100813.03;2078837;28;20528;-75
2022/09/21 00:16:22;;;;;;;6.78;3.10;;;;;;;20.79;74.11;100810.31;2094147;28;20142;-75
2022/09/21 00:17:46;;;;;;;5.63;2.55;;;;;;;20.77;73.87;100804.09;2080557;28;20064;-75
2022/09/21 00:19:11;;;;;;;5.60;2.45;;;;;;;20.75;73.49;100808.59;2082966;28;20048;-75
2022/09/21 00:20:34;;;;;;;5.88;2.80;;;;;;;20.71;73.57;100806.94;2086902;28;20080;-75
2022/09/21 00:21:56;;;;;;;4.43;2.75;;;;;;;20.68;73.54;100815.94;2085945;28;20057;-75
2022/09/21 00:23:19;;;;;;;5.72;3.38;;;;;;;20.64;73.37;100816.94;2086539;28;20052;-75
2022/09/21 00:24:41;;;;;;;4.93;2.65;;;;;;;20.60;73.21;100809.91;2090564;28;20040;-75
2022/09/21 00:26:07;;;;;;;6.93;2.88;;;;;;;20.56;73.10;100803.72;2093738;28;20143;-74
2022/09/21 00:27:30;;;;;;;4.30;2.63;;;;;;;20.52;73.02;100812.78;2093858;28;20047;-75
2022/09/21 00:28:54;;;;;;;9.07;2.60;;;;;;;20.49;73.07;100811.94;2096142;28;20052;-75
2022/09/21 00:30:15;;;;;;;7.97;2.97;;;;;;;20.46;73.22;100807.56;2087932;28;20048;-75
2022/09/21 00:31:38;;;;;;;5.07;3.17;;;;;;;20.45;73.29;100811.16;2090448;28;20040;-75
2022/09/21 00:32:59;;;;;;;6.30;3.08;;;;;;;20.45;73.51;100812.94;2094398;28;20049;-75
2022/09/21 00:34:24;;;;;;;6.25;2.80;;;;;;;20.45;73.78;100811.16;2086692;28;20426;-75
2022/09/21 00:35:45;;;;;;;5.97;2.78;;;;;;;20.45;73.90;100813.84;2083559;28;20037;-75
2022/09/21 00:37:08;;;;;;;;;;;;;;;20.42;74.05;100816.56;2088382;28;20139;-74
2022/09/21 00:38:29;;;;;;;5.22;2.92;;;;;;;20.41;74.10;100812.16;2080683;28;20395;-74
2022/09/21 00:39:52;;;;;;;5.93;2.70;;;;;;;20.39;73.84;100813.97;2077482;28;21046;-74
2022/09/21 00:41:13;;;;;;;5.93;3.28;;;;;;;20.38;73.97;100814.91;2086102;28;20044;-75
2022/09/21 00:42:36;;;;;;;7.10;2.60;;;;;;;20.36;73.91;100810.47;2086009;28;20037;-75
2022/09/21 00:44:23;;;;;;;9.30;3.00;;;;;;;20.37;73.95;100820.28;2085483;28;20041;-75
2022/09/21 00:45:50;;;;;;;5.88;2.53;;;;;;;20.34;74.09;100815.91;2091688;28;20044;-75
2022/09/21 00:47:14;;;;;;;6.53;3.17;;;;;;;20.35;74.37;100819.47;2083267;28;20516;-75
2022/09/21 00:48:37;;;;;;;6.72;2.85;;;;;;;20.35;74.38;100811.41;2084185;28;20049;-75
2022/09/21 00:50:04;;;;;;;9.38;2.85;;;;;;;20.37;74.61;100817.59;2078046;28;20047;-74
2022/09/21 00:51:26;;;;;;;5.93;2.47;;;;;;;20.38;74.70;100817.56;2085977;28;20613;-75
2022/09/21 00:52:50;;;;;;;5.63;3.10;;;;;;;20.40;74.73;100815.75;2086346;28;20106;-74
2022/09/21 00:54:18;;;;;;;6.60;2.95;;;;;;;20.40;74.70;100813.06;2092305;28;20589;-74
2022/09/21 00:55:43;;;;;;;9.45;3.45;;;;;;;20.41;74.77;100816.63;2095562;28;20044;-75
2022/09/21 00:57:06;;;;;;;4.85;2.50;;;;;;;20.40;74.81;100818.44;2102961;28;20054;-74
2022/09/21 00:58:32;;;;;;;5.80;2.75;;;;;;;20.41;74.79;100814.84;2089036;28;20447;-75
2022/09/21 00:59:58;;;;;;;5.47;3.17;;;;;;;20.42;74.99;100813.88;2094553;28;20056;-75
2022/09/21 01:01:21;;;;;;;6.40;2.67;;;;;;;20.42;75.19;100816.56;2096741;28;20097;-75
2022/09/21 01:02:42;;;;;;;6.60;2.65;;;;;;;20.40;75.10;100810.38;2093801;28;20520;-75
2022/09/21 01:04:07;;;;;;;8.02;3.03;;;;;;;20.40;75.10;100813.06;2091814;28;20192;-75
2022/09/21 01:05:30;;;;;;;8.20;2.90;;;;;;;20.42;75.15;100800.47;2099265;28;20123;-75
2022/09/21 01:06:52;;;;;;;6.07;2.70;;;;;;;20.41;75.17;100806.78;2086823;28;20049;-75
2022/09/21 01:08:16;;;;;;;5.18;2.65;;;;;;;20.43;75.29;100804.94;2091149;28;20037;-75
2022/09/21 01:09:39;;;;;;;5.80;3.00;;;;;;;20.46;75.39;100809.34;2094645;28;20082;-75
2022/09/21 01:11:22;;;;;;;9.95;3.15;;;;;;;20.50;75.33;100802.97;2093101;28;20139;-76
2022/09/21 01:12:58;;;;;;;4.82;3.10;;;;;;;20.51;75.59;100810.13;2096174;28;20036;-75
2022/09/21 01:14:59;;;;;;;6.28;2.97;;;;;;;20.52;75.56;100807.41;2094187;28;20614;-75
2022/09/21 01:16:33;;;;;;;6.03;3.13;;;;;;;20.51;75.78;100811.00;2096647;28;20054;-75
2022/09/21 01:18:03;;;;;;;8.23;2.92;;;;;;;20.51;75.58;100805.63;2086663;28;20536;-74
2022/09/21 01:19:53;;;;;;;5.47;2.60;;;;;;;20.50;75.55;100811.91;2086767;28;20128;-76
2022/09/21 01:21:20;;;;;;;6.40;2.70;;;;;;;20.47;75.37;100809.31;2096458;28;20093;-75
2022/09/21 01:22:57;;;;;;;5.35;2.80;;;;;;;20.45;75.28;100803.09;2089406;28;20051;-76
2022/09/21 01:24:39;;;;;;;6.10;2.83;;;;;;;20.42;75.19;100807.66;2087904;28;20497;-75
2022/09/21 01:26:11;;;;;;;4.85;3.20;;;;;;;20.41;75.26;100805.91;2096871;28;20048;-75
2022/09/21 01:27:41;;;;;;;;;;;;;;;20.37;75.30;100807.75;2089651;28;20421;-76
2022/09/21 01:29:26;;;;;;;6.00;2.70;;;;;;;20.39;75.27;100813.09;2094850;28;20400;-75
2022/09/21 01:30:52;;;;;;;4.93;2.78;;;;;;;20.40;75.45;100807.69;2093814;28;20082;-75
2022/09/21 01:32:19;;;;;;;8.73;3.70;;;;;;;20.43;75.31;100801.38;2101262;28;20083;-75
2022/09/21 01:33:46;;;;;;;6.10;2.55;;;;;;;20.46;75.39;100806.66;2088329;28;20726;-75
2022/09/21 01:35:14;;;;;;;5.68;3.10;;;;;;;20.51;75.53;100815.47;2094108;28;20506;-75
2022/09/21 01:36:38;;;;;;;5.32;3.10;;;;;;;20.55;75.52;100812.69;2086952;28;20140;-75
2022/09/21 01:38:04;;;;;;;7.20;3.28;;;;;;;20.59;75.64;100813.50;2090031;28;20105;-75
2022/09/21 01:39:28;;;;;;;5.93;3.05;;;;;;;20.61;75.74;100804.47;2086257;28;20057;-75
2022/09/21 01:40:55;;;;;;;7.35;3.22;;;;;;;20.64;75.78;100808.91;2088456;28;20052;-75
2022/09/21 01:42:19;;;;;;;5.65;2.92;;;;;;;20.63;75.55;100808.00;2094692;28;20071;-75
2022/09/21 01:43:46;;;;;;;6.15;2.70;;;;;;;20.63;75.44;100802.66;2089623;28;20060;-75
2022/09/21 01:45:11;;;;;;;5.38;2.78;;;;;;;20.62;75.28;100800.88;2098041;28;20046;-75
2022/09/21 01:46:35;;;;;;;6.65;2.83;;;;;;;20.57;75.17;100794.75;2096736;28;20059;-76
2022/09/21 01:48:01;;;;;;;5.13;2.83;;;;;;;20.55;75.09;100798.38;2082269;28;20128;-76
2022/09/21 01:49:28;;;;;;;7.53;2.92;;;;;;;20.53;75.03;100800.25;2100474;28;20040;-76
2022/09/21 01:50:54;;;;;;;5.80;2.92;;;;;;;20.49;74.93;100793.16;2087416;28;20116;-77
2022/09/21 01:52:20;;;;;;;5.97;3.05;;;;;;;20.46;75.07;100790.56;2092122;28;20097;-75
2022/09/21 01:53:47;;;;;;;4.10;2.60;;;;;;;20.42;75.15;100781.72;2102497;28;20101;-76
2022/09/21 01:55:12;;;;;;;4.40;2.70;;;;;;;20.39;75.04;100775.56;2091660;28;20135;-75
2022/09/21 01:56:39;;;;;;;5.35;3.42;;;;;;;20.36;75.10;100773.81;2094787;28;20048;-75
2022/09/21 01:58:07;;;;;;;5.30;2.90;;;;;;;20.33;74.96;100775.72;2090013;28;20075;-75
2022/09/21 01:59:41;;;;;;;7.78;3.42;;;;;;;20.29;75.09;100770.38;2095937;28;20147;-75
2022/09/21 02:01:09;;;;;;;7.63;2.90;;;;;;;20.27;75.13;100774.03;2094789;28;20094;-74
2022/09/21 02:02:37;;;;;;;10.27;3.30;;;;;;;20.27;75.42;100774.03;2093723;28;20180;-74
2022/09/21 02:04:05;;;;;;;7.35;3.30;;;;;;;20.25;75.46;100767.81;2079866;28;20049;-75
2022/09/21 02:05:30;;;;;;;8.38;3.50;;;;;;;20.22;75.51;100774.09;2093129;28;20139;-74
2022/09/21 02:06:52;;;;;;;6.22;2.95;;;;;;;20.22;75.75;100770.53;2087611;28;20057;-75
2022/09/21 02:08:15;;;;;;;6.60;3.45;;;;;;;20.19;75.57;100771.53;2084772;28;20393;-75
2022/09/21 02:09:37;;;;;;;6.57;3.17;;;;;;;20.18;75.79;100774.22;2090653;28;20482;-75
2022/09/21 02:11:01;;;;;;;8.13;3.30;;;;;;;20.18;75.93;100776.91;2085618;28;20144;-74
2022/09/21 02:12:24;;;;;;;7.25;2.85;;;;;;;20.16;75.77;100771.56;2080581;28;20105;-75
2022/09/21 02:13:50;;;;;;;7.32;3.90;;;;;;;20.17;75.94;100772.47;2082787;28;20095;-75
2022/09/21 02:15:11;;;;;;;5.28;3.05;;;;;;;20.17;75.95;100772.47;2094151;28;20066;-75
2022/09/21 02:16:38;;;;;;;6.82;3.05;;;;;;;20.16;75.92;100768.91;2079894;28;20091;-75
2022/09/21 02:18:06;;;;;;;7.03;3.13;;;;;;;20.14;75.79;100759.16;2087307;28;20051;-75
2022/09/21 02:19:36;;;;;;;4.97;2.80;;;;;;;20.12;75.70;100761.84;2094201;28;20044;-74
2022/09/21 02:21:01;;;;;;;4.82;2.80;;;;;;;20.10;75.82;100766.38;2095559;28;20532;-74
2022/09/21 02:22:34;;;;;;;8.80;3.03;;;;;;;20.08;75.72;100765.53;2085738;28;20473;-74
2022/09/21 02:24:06;;;;;;;8.77;3.50;;;;;;;20.06;75.96;100763.81;2086213;28;20121;-75
2022/09/21 02:25:40;;;;;;;6.75;3.03;;;;;;;20.03;75.95;100758.50;2083962;28;20083;-74
2022/09/21 02:27:04;;;;;;;6.30;3.13;;;;;;;20.01;75.79;100755.00;2084216;28;20036;-75
2022/09/21 02:28:38;;;;;;;6.82;3.13;;;;;;;19.98;75.86;100750.56;2086063;28;20055;-75
2022/09/21 02:30:07;;;;;;;4.78;2.75;;;;;;;19.95;75.92;100752.47;2095353;28;20052;-75
2022/09/21 02:31:34;;;;;;;11.07;4.18;;;;;;;19.93;76.02;100759.63;2095385;28;20157;-75
2022/09/21 02:33:05;;;;;;;6.20;3.17;;;;;;;19.93;76.30;100760.53;2079774;28;20033;-75
2022/09/21 02:34:33;;;;;;;7.07;3.22;;;;;;;19.95;76.30;100766.75;2085271;28;20135;-74
2022/09/21 02:36:06;;;;;;;5.80;3.42;;;;;;;19.99;76.36;100762.19;2086088;28;20151;-74
2022/09/21 02:37:35;;;;;;;7.20;3.15;;;;;;;20.03;76.43;100769.22;2079190;28;20501;-74
2022/09/21 02:39:04;;;;;;;5.13;3.05;;;;;;;20.06;76.30;100770.03;2079688;28;20512;-74
2022/09/21 02:40:31;;;;;;;7.05;3.13;;;;;;;20.06;76.26;100774.53;2078983;28;20065;-74
2022/09/21 02:42:02;;;;;;;5.10;2.88;;;;;;;20.05;76.38;100764.72;2090855;28;20056;-74
2022/09/21 02:43:32;;;;;;;6.70;3.15;;;;;;;20.06;76.18;100767.38;2090224;28;20128;-74
2022/09/21 02:45:00;;;;;;;5.57;2.92;;;;;;;20.07;75.90;100768.25;2092288;28;20045;-74
2022/09/21 02:46:27;;;;;;;6.57;3.58;;;;;;;20.06;75.96;100770.03;2088665;28;20036;-74
2022/09/21 02:47:52;;;;;;;5.43;3.05;;;;;;;20.06;75.78;100763.81;2079165;28;20076;-74
2022/09/21 02:49:21;;;;;;;5.50;3.28;;;;;;;20.06;75.83;100763.81;2085579;28;20075;-73
2022/09/21 02:50:47;;;;;;;6.28;3.30;;;;;;;20.04;75.97;100758.47;2087074;28;20049;-73
2022/09/21 02:52:13;;;;;;;6.53;2.88;;;;;;;20.05;75.98;100757.56;2087878;28;20051;-73
2022/09/21 02:53:39;;;;;;;5.50;3.13;;;;;;;20.05;76.05;100762.03;2096530;28;20139;-74
2022/09/21 02:55:02;;;;;;;6.68;3.20;;;;;;;20.06;76.34;100767.38;2081970;28;20057;-74
2022/09/21 02:56:27;;;;;;;6.55;3.47;;;;;;;20.07;76.50;100755.72;2093356;28;20040;-73
2022/09/21 02:57:51;;;;;;;7.78;3.42;;;;;;;20.11;76.46;100767.25;2092433;28;20075;-74
2022/09/21 02:59:15;;;;;;;5.63;2.92;;;;;;;20.11;76.54;100756.53;2085680;28;20041;-74
2022/09/21 03:00:37;;;;;;;8.85;3.17;;;;;;;20.12;76.93;100756.50;2081035;28;20286;-74
2022/09/21 03:01:59;;;;;;;;;;;;;;;20.10;76.83;100763.69;2077650;28;20060;-74
2022/09/21 03:03:23;;;;;;;10.48;3.53;;;;;;;20.11;76.77;100762.78;2089549;28;19920;-74
2022/09/21 03:04:48;;;;;;;9.32;3.20;;;;;;;20.13;76.89;100766.31;2079470;28;20136;-74
2022/09/21 03:06:10;;;;;;;8.57;3.25;;;;;;;20.11;76.58;100768.13;2085543;28;20057;-73
2022/09/21 03:07:32;;;;;;;6.78;3.35;;;;;;;20.12;76.58;100775.25;2086420;28;20317;-74
2022/09/21 03:08:57;;;;;;;5.63;2.83;;;;;;;20.11;76.66;100775.28;2079720;28;20133;-74
2022/09/21 03:10:19;;;;;;;5.88;3.42;;;;;;;20.08;76.63;100772.69;2087353;28;20556;-74
2022/09/21 03:11:42;;;;;;;9.13;4.07;;;;;;;20.06;76.71;100778.09;2095426;28;20048;-74
2022/09/21 03:13:04;;;;;;;6.00;2.92;;;;;;;20.04;76.64;100771.88;2088332;28;20049;-74
2022/09/21 03:14:26;;;;;;;7.47;3.05;;;;;;;20.03;76.70;100779.94;2093203;28;20044;-74
2022/09/21 03:15:47;;;;;;;5.10;2.80;;;;;;;20.03;76.55;100774.56;2087897;28;20082;-74
2022/09/21 03:17:10;;;;;;;7.95;3.20;;;;;;;20.04;76.55;100770.97;2085103;28;20405;-74
2022/09/21 03:18:33;;;;;;;6.43;3.25;;;;;;;20.04;76.84;100771.88;2081308;28;20067;-74
2022/09/21 03:19:57;;;;;;;5.57;3.00;;;;;;;20.05;76.85;100772.75;2086768;28;20444;-75
2022/09/21 03:21:19;;;;;;;5.53;2.92;;;;;;;20.05;77.08;100772.75;2078789;28;20094;-74
2022/09/21 03:22:41;;;;;;;5.15;3.03;;;;;;;20.07;77.25;100776.28;2070271;28;20137;-74
2022/09/21 03:24:03;;;;;;;7.35;3.28;;;;;;;20.09;77.49;100774.44;2083590;28;20445;-73
2022/09/21 03:25:25;;;;;;;5.25;3.13;;;;;;;20.11;77.73;100775.28;2089800;28;20072;-75
2022/09/21 03:26:48;;;;;;;9.02;3.25;;;;;;;20.12;77.75;100769.91;2094853;28;20109;-75
2022/09/21 03:28:12;;;;;;;6.80;3.15;;;;;;;20.16;77.91;100773.38;2102649;28;20055;-74
2022/09/21 03:29:33;;;;;;;9.10;3.30;;;;;;;20.19;78.10;100770.63;2097773;28;20479;-73
2022/09/21 03:30:56;;;;;;;5.45;3.13;;;;;;;20.23;78.20;100772.31;2086905;28;20072;-74
2022/09/21 03:32:17;;;;;;;6.80;3.50;;;;;;;20.25;78.10;100778.53;2097804;28;20372;-74
2022/09/21 03:33:40;;;;;;;6.72;3.13;;;;;;;20.25;78.06;100784.78;2097620;28;20048;-74
2022/09/21 03:35:03;;;;;;;5.85;3.03;;;;;;;20.26;78.09;100778.50;2095280;28;20044;-74
2022/09/21 03:36:26;;;;;;;7.72;3.22;;;;;;;20.26;77.94;100783.88;2094373;28;20044;-74
2022/09/21 03:37:49;;;;;;;6.30;3.47;;;;;;;20.27;78.15;100782.94;2094557;28;20060;-74
2022/09/21 03:39:11;;;;;;;7.93;3.33;;;;;;;20.28;78.12;100783.84;2086965;28;20059;-74
2022/09/21 03:40:33;;;;;;;8.38;3.33;;;;;;;20.28;78.16;100786.53;2083932;28;20136;-74
2022/09/21 03:41:56;;;;;;;9.13;3.15;;;;;;;20.26;77.89;100791.03;2086424;28;20400;-74
2022/09/21 03:43:19;;;;;;;5.40;3.40;;;;;;;20.25;77.94;100789.25;2088790;28;20041;-74
2022/09/21 03:44:42;;;;;;;7.57;3.33;;;;;;;20.21;77.92;100790.25;2092435;28;20048;-74
2022/09/21 03:46:03;;;;;;;11.18;3.50;;;;;;;20.17;77.57;100789.44;2094306;28;20048;-74
2022/09/21 03:47:28;;;;;;;5.72;3.35;;;;;;;20.14;77.44;100789.53;2094256;28;20618;-74
2022/09/21 03:48:50;;;;;;;6.60;3.20;;;;;;;20.12;77.63;100790.47;2103249;28;20080;-74
2022/09/21 03:50:14;;;;;;;6.47;3.15;;;;;;;20.11;77.89;100794.06;2087957;28;20147;-74
2022/09/21 03:51:37;;;;;;;6.50;3.28;;;;;;;20.07;77.85;100789.69;2079838;28;20037;-75
2022/09/21 03:53:00;;;;;;;7.38;3.88;;;;;;;20.05;77.86;100788.84;2078112;28;20154;-73
2022/09/21 03:54:23;;;;;;;6.72;3.30;;;;;;;20.04;78.10;100803.16;2088415;28;20142;-74
2022/09/21 03:55:45;;;;;;;8.50;3.53;;;;;;;20.03;78.30;100796.00;2088471;28;20071;-74
2022/09/21 03:57:08;;;;;;;6.15;3.00;;;;;;;20.01;78.24;100800.56;2084078;28;20522;-74
2022/09/21 03:58:31;;;;;;;6.80;2.92;;;;;;;20.01;78.39;100798.75;2085896;28;20049;-74
2022/09/21 03:59:53;;;;;;;9.88;2.97;;;;;;;20.02;78.58;100803.16;2086539;28;20043;-74
2022/09/21 04:01:15;;;;;;;6.75;3.42;;;;;;;20.03;78.56;100801.38;2094701;28;20059;-74
2022/09/21 04:02:38;;;;;;;5.95;3.13;;;;;;;20.04;78.64;100798.66;2084797;28;20045;-74
2022/09/21 04:04:01;;;;;;;4.35;2.92;;;;;;;20.06;78.97;100796.84;2091238;28;20052;-75
2022/09/21 04:05:26;;;;;;;6.10;3.47;;;;;;;20.09;78.93;100806.59;2100956;28;20051;-75
2022/09/21 04:06:48;;;;;;;5.70;2.95;;;;;;;20.08;79.07;100804.88;2097550;28;20079;-73
2022/09/21 04:08:10;;;;;;;7.47;2.97;;;;;;;20.08;78.83;100804.88;2102284;28;20718;-75
2022/09/21 04:09:32;;;;;;;7.00;3.55;;;;;;;20.09;78.90;100815.53;2097118;28;20138;-74
2022/09/21 04:10:55;;;;;;;8.40;3.50;;;;;;;20.06;78.70;100806.69;2093954;28;20582;-75
2022/09/21 04:12:18;;;;;;;7.55;3.67;;;;;;;20.06;78.59;100809.38;2094692;28;20045;-74
2022/09/21 04:13:41;;;;;;;8.48;3.05;;;;;;;20.06;78.39;100806.69;2081166;28;20057;-74
2022/09/21 04:15:06;;;;;;;8.07;3.20;;;;;;;20.07;78.48;100800.41;2088250;28;20052;-74
2022/09/21 04:16:27;;;;;;;5.82;2.80;;;;;;;20.06;78.29;100794.16;2084954;28;20053;-73
2022/09/21 04:17:52;;;;;;;4.57;3.03;;;;;;;20.07;78.46;100797.72;2080125;28;20055;-74
2022/09/21 04:19:15;;;;;;;5.93;3.50;;;;;;;20.06;78.29;100798.66;2080530;28;20053;-73
2022/09/21 04:20:40;;;;;;;6.18;3.03;;;;;;;20.07;78.40;100797.72;2094981;28;20041;-74
2022/09/21 04:22:02;;;;;;;7.45;3.45;;;;;;;20.07;78.43;100800.41;2092440;28;20037;-74
2022/09/21 04:23:25;;;;;;;6.50;3.45;;;;;;;20.08;78.50;100796.81;2098967;28;20063;-74
2022/09/21 04:24:46;;;;;;;6.07;3.05;;;;;;;20.09;78.70;100806.59;2088505;28;20110;-74
2022/09/21 04:26:20;;;;;;;4.63;3.20;;;;;;;20.11;78.54;100800.28;2083587;28;20056;-75
2022/09/21 04:27:43;;;;;;;7.82;3.25;;;;;;;20.12;78.65;100802.06;2095254;28;20040;-74
2022/09/21 04:29:05;;;;;;;7.15;3.50;;;;;;;20.15;78.68;100798.44;2094434;28;20598;-74
2022/09/21 04:30:28;;;;;;;5.47;3.20;;;;;;;20.17;78.56;100796.59;2094529;28;20044;-74
2022/09/21 04:31:50;;;;;;;5.82;2.95;;;;;;;20.18;78.74;100799.25;2086229;28;20060;-74
2022/09/21 04:33:13;;;;;;;6.90;3.30;;;;;;;20.22;78.57;100797.34;2100300;28;20403;-75
2022/09/21 04:34:38;;;;;;;5.88;2.92;;;;;;;20.25;78.41;100799.97;2088831;28;20057;-74
2022/09/21 04:36:02;;;;;;;11.25;3.67;;;;;;;20.28;78.42;100791.88;2095029;28;20071;-74
2022/09/21 04:37:25;;;;;;;6.68;3.95;;;;;;;20.31;78.11;100802.50;2094528;28;20049;-74
2022/09/21 04:38:47;;;;;;;8.05;3.30;;;;;;;20.35;78.30;100806.06;2089481;28;20044;-74
2022/09/21 04:40:10;;;;;;;5.53;2.83;;;;;;;20.36;78.17;100789.03;2088287;28;20052;-74
2022/09/21 04:41:31;;;;;;;8.18;3.42;;;;;;;20.40;78.32;100801.47;2085151;28;20050;-74
2022/09/21 04:42:55;;;;;;;9.20;3.70;;;;;;;20.41;78.23;100787.13;2096203;28;20040;-74
2022/09/21 04:44:18;;;;;;;7.60;2.92;;;;;;;20.43;78.33;100791.53;2091025;28;20052;-74
2022/09/21 04:45:41;;;;;;;4.70;3.38;;;;;;;20.45;78.23;100795.06;2082285;28;20052;-74
2022/09/21 04:47:04;;;;;;;4.53;2.78;;;;;;;20.48;77.95;100789.59;2088112;28;20079;-74
2022/09/21 04:48:26;;;;;;;5.00;3.00;;;;;;;20.49;77.99;100794.06;2097596;28;20135;-74
2022/09/21 04:49:49;;;;;;;5.70;3.13;;;;;;;20.49;78.01;100799.41;2085003;28;20135;-74
2022/09/21 04:51:14;;;;;;;8.43;3.30;;;;;;;20.52;77.79;100795.78;2076165;28;20497;-74
2022/09/21 04:52:37;;;;;;;4.90;3.10;;;;;;;20.52;77.71;100794.00;2091108;28;20090;-74
2022/09/21 04:53:59;;;;;;;6.20;3.00;;;;;;;20.53;78.02;100787.72;2083706;28;20044;-74
2022/09/21 04:55:22;;;;;;;8.13;3.15;;;;;;;20.58;78.10;100792.94;2086914;28;20074;-74
2022/09/21 04:56:43;;;;;;;7.47;3.22;;;;;;;20.64;78.04;100784.75;2089224;28;20060;-74
2022/09/21 04:58:06;;;;;;;6.32;3.10;;;;;;;20.68;77.97;100789.09;2084403;28;20071;-74
2022/09/21 04:59:29;;;;;;;10.23;2.97;;;;;;;20.73;77.84;100795.25;2085730;28;20041;-74
2022/09/21 05:00:51;;;;;;;7.63;2.63;;;;;;;20.77;77.72;100793.38;2080464;28;20099;-73
2022/09/21 05:02:14;;;;;;;7.35;3.30;;;;;;;20.85;77.69;100797.63;2084087;28;20056;-74
2022/09/21 05:03:37;;;;;;;7.80;3.05;;;;;;;21.01;77.88;100785.53;2090015;28;20048;-74
2022/09/21 05:04:59;;;;;;;4.78;2.65;;;;;;;21.21;78.22;100794.88;2093627;28;20214;-73
2022/09/21 05:06:22;;;;;;;7.53;2.88;;;;;;;21.38;78.40;100796.19;2080259;28;20071;-74
2022/09/21 05:07:44;;;;;;;5.65;2.35;;;;;;;21.55;78.43;100800.19;2094131;28;20205;-74
2022/09/21 05:10:45;;;;;;;7.20;2.58;;;;;;;21.91;78.20;100799.13;2089576;28;20048;-74
2022/09/21 05:12:08;;;;;;;5.40;2.40;;;;;;;22.03;77.81;100808.66;2085101;28;20642;-74
2022/09/21 05:13:30;;;;;;;5.95;2.45;;;;;;;22.11;77.33;100817.38;2088693;28;20443;-74
2022/09/21 05:14:54;;;;;;;4.97;2.35;;;;;;;22.13;76.63;100812.81;2091079;28;20056;-74
2022/09/21 05:16:18;;;;;;;6.95;2.35;;;;;;;22.18;76.32;100813.56;2096804;28;20052;-74
2022/09/21 05:17:41;;;;;;;6.18;1.90;;;;;;;22.27;76.21;100810.56;2090181;28;20075;-73
2022/09/21 05:19:03;;;;;;;6.13;2.30;;;;;;;22.33;75.84;100814.88;2088131;28;20053;-75
2022/09/21 05:20:25;;;;;;;;;;;;;;;22.29;75.36;100816.78;2086419;28;20049;-75
2022/09/21 05:21:49;;;;;;;6.63;2.30;;;;;;;22.25;75.37;100813.28;2095765;28;19924;-76
2022/09/21 05:23:11;;;;;;;6.35;2.40;;;;;;;22.21;75.16;100814.34;2105059;28;20093;-76
2022/09/21 05:24:34;;;;;;;6.63;2.20;;;;;;;22.25;75.37;100815.13;2095111;28;20049;-76
2022/09/21 05:25:56;;;;;;;5.72;1.90;;;;;;;22.40;75.69;100814.63;2086140;28;20559;-75
2022/09/21 05:27:19;;;;;;;4.88;1.98;;;;;;;22.61;75.59;100804.97;2094062;28;20139;-76
2022/09/21 05:28:41;;;;;;;3.70;2.00;;;;;;;22.84;75.60;100810.47;2085874;28;20041;-76
2022/09/21 05:30:04;;;;;;;;;;;;;;;23.03;75.28;100802.69;2092472;28;20040;-75
2022/09/21 05:31:36;;;;;;;4.75;2.30;;;;;;;23.24;74.72;100801.00;2085959;28;19927;-75
2022/09/21 05:33:04;;;;;;;5.20;1.83;;;;;;;23.34;73.70;100802.44;2094466;28;20048;-75
2022/09/21 05:34:45;;;;;;;5.43;1.85;;;;;;;23.47;73.42;100798.41;2095512;28;20048;-75
2022/09/21 05:36:23;;;;;;;5.70;1.90;;;;;;;23.66;72.95;100799.47;2096601;28;20049;-76
2022/09/21 05:37:57;;;;;;;4.10;1.85;;;;;;;23.84;72.39;100795.19;2096452;28;20044;-76
2022/09/21 05:39:19;;;;;;;4.55;1.83;;;;;;;23.97;71.99;100793.78;2097563;28;20051;-76
2022/09/21 05:40:41;;;;;;;;;;;;;;;24.11;71.77;100804.03;2097107;28;20044;-75
2022/09/21 05:42:05;;;;;;;4.80;1.90;;;;;;;24.28;71.48;100809.69;2093098;28;19995;-75
2022/09/21 05:43:29;;;;;;;4.43;1.60;;;;;;;24.43;71.23;100800.94;2085922;28;20048;-75
2022/09/21 05:44:52;;;;;;;3.05;1.70;;;;;;;24.59;70.73;100798.50;2091470;28;20578;-75
2022/09/21 05:46:19;;;;;;;3.42;1.50;;;;;;;24.82;70.01;100800.22;2093906;28;20044;-75
2022/09/21 05:48:04;;;;;;;4.85;1.75;;;;;;;25.06;69.20;100788.41;2086376;28;20072;-75
2022/09/21 05:49:36;;;;;;;4.22;1.40;;;;;;;25.42;68.39;100802.09;2087848;28;20098;-76
2022/09/21 05:51:04;;;;;;;4.18;1.40;;;;;;;25.77;67.40;100795.13;2102702;28;20144;-76
2022/09/21 05:52:34;;;;;;;4.68;1.70;;;;;;;26.07;65.49;100790.94;2088202;28;20080;-75
2022/09/21 05:54:06;;;;;;;4.93;1.70;;;;;;;26.16;63.44;100793.22;2086658;28;20475;-75
2022/09/21 05:55:42;;;;;;;2.90;1.30;;;;;;;26.04;62.92;100785.69;2090222;28;20045;-75
2022/09/21 05:57:13;;;;;;;7.07;1.92;;;;;;;25.88;62.57;100792.78;2084999;28;20048;-75
2022/09/21 05:58:41;;;;;;;4.45;1.50;;;;;;;25.76;63.02;100790.66;2093765;28;20257;-76
2022/09/21 06:00:14;;;;;;;9.30;1.83;;;;;;;25.82;63.50;100793.06;2096486;28;20091;-75
2022/09/21 06:01:45;;;;;;;9.18;1.85;;;;;;;26.01;63.43;100793.94;2086856;28;20051;-75
2022/09/21 06:03:28;;;;;;;5.40;1.75;;;;;;;26.13;61.78;100796.06;2100851;28;20044;-75
2022/09/21 06:04:53;;;;;;;5.15;2.10;;;;;;;26.05;61.37;100792.88;2096507;28;20099;-75
2022/09/21 06:06:15;;;;;;;8.07;2.03;;;;;;;26.06;61.76;100794.59;2086049;28;20647;-74
2022/09/21 06:07:36;;;;;;;3.35;1.50;;;;;;;26.33;61.55;100794.25;2085694;28;20041;-75
2022/09/21 06:09:00;;;;;;;2.75;1.30;;;;;;;26.63;60.74;100792.75;2090931;28;20125;-75
2022/09/21 06:10:23;;;;;;;7.72;1.90;;;;;;;26.90;59.77;100785.97;2092857;28;20471;-75
2022/09/21 06:11:46;;;;;;;9.95;1.90;;;;;;;27.16;59.12;100787.31;2093277;28;20056;-76
2022/09/21 06:13:09;;;;;;;3.00;1.23;;;;;;;27.37;58.59;100788.84;2088161;28;20150;-77
2022/09/21 06:14:31;;;;;;;2.40;1.13;;;;;;;27.65;58.35;100781.97;2090083;28;20040;-76
2022/09/21 06:15:53;;;;;;;6.40;1.40;;;;;;;27.88;57.91;100786.16;2088679;28;20044;-76
2022/09/21 06:17:14;;;;;;;6.82;1.20;;;;;;;27.99;57.75;100786.41;2091272;28;20052;-77
2022/09/21 06:18:41;;;;;;;3.08;1.30;;;;;;;28.13;57.44;100790.13;2091843;28;20072;-77
2022/09/21 06:20:03;;;;;;;4.75;1.20;;;;;;;28.37;56.94;100795.13;2091570;28;20134;-76
2022/09/21 06:21:25;;;;;;;3.13;1.20;;;;;;;28.59;56.12;100792.03;2091897;28;20667;-76
2022/09/21 06:22:47;;;;;;;3.00;1.20;;;;;;;28.72;55.65;100791.22;2091456;28;20508;-77
2022/09/21 06:24:11;;;;;;;3.95;1.30;;;;;;;28.91;54.42;100791.03;2085299;28;20182;-76
2022/09/21 06:25:34;;;;;;;4.22;1.13;;;;;;;29.14;53.35;100792.38;2085718;28;20866;-76
2022/09/21 06:26:56;;;;;;;2.65;1.10;;;;;;;29.32;52.40;100796.69;2092220;28;20053;-77
2022/09/21 06:28:19;;;;;;;5.68;1.10;;;;;;;29.50;52.12;100806.47;2093118;28;20158;-75
2022/09/21 06:29:41;;;;;;;4.30;1.30;;;;;;;29.69;51.66;100800.72;2093817;28;20040;-76
2022/09/21 06:31:04;;;;;;;2.80;1.10;;;;;;;29.92;51.07;100808.38;2094669;28;20399;-76
2022/09/21 06:32:26;;;;;;;2.72;1.00;;;;;;;30.20;49.91;100815.59;2085035;28;20775;-76
2022/09/21 06:33:49;;;;;;;5.70;1.58;;;;;;;30.43;49.26;100820.44;2084098;28;20079;-76
2022/09/21 06:35:11;;;;;;;3.58;1.20;;;;;;;30.49;48.95;100817.34;2089228;28;20089;-76
2022/09/21 06:36:33;;;;;;;5.03;1.80;;;;;;;30.63;48.97;100815.53;2090893;28;20052;-76
2022/09/21 06:37:59;;;;;;;2.38;1.00;;;;;;;30.77;48.29;100823.66;2085422;28;22081;-76
2022/09/21 06:39:23;;;;;;;4.38;1.25;;;;;;;30.73;47.77;100827.56;2086744;28;20497;-77